Defiance, Iowa
Current Conditions -  °F | °C
As of 1:15 AM on Saturday 20 Dec 2014 (Local Time) from KDNS Reporting Station
Haze Haze  
Wind Chill: -6°   Ceiling: 500
Heat Index: -1°   Visibility: 2.5mi
Dew Point: -1°   Wind: 10mph
Humidity: 100%   Direction: 160°SSE
Pressure: 30.11"   Gusts: NA
Location:  41.82°N, 95.34°W
Report Text: KDNS 200715Z AUTO 16009KT 2 1/2SM BR OVC005 M01/M01 A3011 RMK AO2
Loading
Personal Weather Stations






























Interactive Weather Map New forecast layout! Learn more

10-Day Weather Forecast

Advertisements
Track Severe Weather on mobile